Time;durP1;ratioP1;P1;durP2;ratioP2;P2;SDS_P1;SDS_P2;PMS_P1;PMS_P2;Temp;Humidity;BMP_temperature;BMP_pressure;BME280_temperature;BME280_humidity;BME280_pressure;Samples;Min_cycle;Max_cycle;Signal;HPM_P1;HPM_P2
2023/08/23 00:01:05;;;;;;;12.00;5.63;;;;;;;19.95;74.31;102035.72;7391842;19;20027;-65
2023/08/23 00:03:36;;;;;;;11.35;6.13;;;;;;;19.94;74.60;102029.50;7393311;19;20495;-67
2023/08/23 00:06:03;;;;;;;13.25;5.72;;;;;;;19.76;74.95;102031.19;7392931;19;20497;-66
2023/08/23 00:08:31;;;;;;;13.98;6.30;;;;;;;19.69;75.49;102035.47;7391202;19;20019;-65
2023/08/23 00:10:58;;;;;;;13.27;5.97;;;;;;;19.79;75.18;102033.59;7393298;19;20018;-65
2023/08/23 00:13:25;;;;;;;12.90;6.18;;;;;;;19.67;75.86;102034.72;7391890;19;20010;-66
2023/08/23 00:15:53;;;;;;;14.48;6.75;;;;;;;19.45;76.40;102033.97;7392954;19;20018;-66
2023/08/23 00:18:20;;;;;;;13.02;6.47;;;;;;;19.35;77.19;102032.28;7391218;19;20531;-66
2023/08/23 00:20:47;;;;;;;12.13;6.57;;;;;;;19.41;76.59;102029.03;7392536;19;20011;-66
2023/08/23 00:23:15;;;;;;;13.38;6.47;;;;;;;19.32;77.34;102028.03;7391188;19;20022;-66
2023/08/23 00:25:42;;;;;;;12.93;6.05;;;;;;;19.39;76.98;102033.69;7392833;19;20561;-66
2023/08/23 00:28:09;;;;;;;11.40;5.90;;;;;;;19.56;76.39;102033.00;7389316;19;20468;-65
2023/08/23 00:30:54;;;;;;;10.65;6.28;;;;;;;19.68;75.99;102029.22;7392540;19;20026;-66
2023/08/23 00:33:21;;;;;;;10.05;5.80;;;;;;;19.69;75.73;102027.41;7390360;19;20479;-65
2023/08/23 00:35:49;;;;;;;12.82;6.35;;;;;;;19.67;75.65;102034.72;7392579;19;20018;-65
2023/08/23 00:38:16;;;;;;;12.77;6.78;;;;;;;19.38;76.88;102024.75;7391406;19;20123;-66
2023/08/23 00:40:44;;;;;;;12.88;6.80;;;;;;;19.22;77.71;102024.47;7390665;19;20019;-65
2023/08/23 00:43:11;;;;;;;11.60;6.22;;;;;;;19.36;77.62;102025.91;7390163;19;20028;-66
2023/08/23 00:45:41;;;;;;;9.85;5.60;;;;;;;19.55;76.42;102025.94;7390499;19;20026;-69
2023/08/23 00:48:11;;;;;;;14.98;6.35;;;;;;;19.63;76.05;102031.47;7392913;19;20019;-66
2023/08/23 00:50:40;;;;;;;11.50;6.25;;;;;;;19.63;75.85;102031.47;7392108;19;20029;-66
2023/08/23 00:53:08;;;;;;;12.90;6.13;;;;;;;19.57;75.67;102033.84;7393412;19;20022;-67
2023/08/23 00:55:36;;;;;;;11.95;5.57;;;;;;;19.57;75.13;102034.69;7392132;19;20018;-66
2023/08/23 00:58:04;;;;;;;10.88;5.97;;;;;;;19.57;75.00;102037.38;7390302;19;20015;-65
2023/08/23 01:00:32;;;;;;;12.45;6.53;;;;;;;19.59;74.76;102034.56;7391706;19;20364;-69
2023/08/23 01:03:00;;;;;;;11.82;6.40;;;;;;;19.56;75.39;102029.47;7391620;19;20011;-66
2023/08/23 01:05:48;;;;;;;10.95;6.32;;;;;;;19.48;75.11;102033.69;7391165;19;20030;-66
2023/08/23 01:08:20;;;;;;;13.13;6.25;;;;;;;19.33;75.39;102031.56;7390422;19;20100;-66
2023/08/23 01:10:49;;;;;;;12.95;6.20;;;;;;;19.29;75.63;102028.28;7391662;19;20364;-65
2023/08/23 01:13:27;;;;;;;12.85;6.80;;;;;;;19.35;75.33;102026.91;7390637;19;20019;-65
2023/08/23 01:15:57;;;;;;;10.65;5.95;;;;;;;19.34;75.31;102027.88;7391438;19;20095;-67
2023/08/23 01:18:27;;;;;;;11.75;5.82;;;;;;;19.38;75.10;102031.97;7388406;19;20487;-65
2023/08/23 01:20:55;;;;;;;13.48;6.40;;;;;;;19.31;75.40;102025.47;7390857;19;20413;-66
2023/08/23 01:23:24;;;;;;;11.88;6.40;;;;;;;19.04;76.56;102031.47;7391066;19;20030;-65
2023/08/23 01:25:52;;;;;;;13.57;6.63;;;;;;;18.95;76.51;102030.47;7390447;19;20022;-66
2023/08/23 01:28:20;;;;;;;12.45;6.40;;;;;;;18.99;76.80;102035.44;7389263;19;20020;-66
2023/08/23 01:30:49;;;;;;;12.77;7.28;;;;;;;19.14;76.25;102029.69;7390897;19;20018;-66
2023/08/23 01:33:51;;;;;;;13.80;7.22;;;;;;;19.30;75.56;102032.66;7389563;19;20086;-67
2023/08/23 01:36:28;;;;;;;12.23;7.22;;;;;;;19.31;75.53;102030.84;7390608;19;20033;-65
2023/08/23 01:38:57;;;;;;;13.95;7.35;;;;;;;19.31;75.21;102025.47;7387760;19;20355;-65
2023/08/23 01:41:25;;;;;;;13.60;8.27;;;;;;;19.34;75.20;102027.88;7397500;19;20021;-66
2023/08/23 01:43:52;;;;;;;14.77;9.20;;;;;;;19.08;76.30;102025.72;7395239;19;20022;-66
2023/08/23 01:46:20;;;;;;;15.38;8.75;;;;;;;18.93;77.28;102027.09;7397534;19;20043;-67
2023/08/23 01:48:48;;;;;;;16.00;8.88;;;;;;;18.82;77.23;102016.44;7398678;19;20025;-65
2023/08/23 01:51:15;;;;;;;13.55;8.98;;;;;;;18.73;77.99;102024.34;7398910;19;20021;-65
2023/08/23 01:53:42;;;;;;;14.88;9.13;;;;;;;18.72;78.06;102032.50;7396556;19;20026;-66
2023/08/23 01:56:10;;;;;;;13.95;8.55;;;;;;;18.84;77.58;102026.03;7396511;19;20022;-66
2023/08/23 01:58:37;;;;;;;14.93;8.30;;;;;;;19.02;76.65;102022.72;7394872;19;20479;-65
2023/08/23 02:01:05;;;;;;;25.55;11.43;;;;;;;18.80;77.36;102016.56;7400805;19;20018;-65
2023/08/23 02:03:32;;;;;;;13.95;8.77;;;;;;;18.71;77.96;102017.41;7401428;19;20483;-65
2023/08/23 02:11:23;;;;;;;19.67;10.25;;;;;;;18.92;78.07;102031.59;7328735;19;20018;-63
2023/08/23 02:13:51;;;;;;;18.17;11.57;;;;;;;18.96;78.02;102022.31;7391187;19;20011;-63
2023/08/23 02:16:21;;;;;;;17.70;10.88;;;;;;;18.97;78.34;102020.47;7397177;19;20632;-65
2023/08/23 02:18:48;;;;;;;18.88;12.73;;;;;;;19.04;78.42;102023.41;7399527;19;20040;-65
2023/08/23 02:21:16;;;;;;;17.23;11.00;;;;;;;19.21;77.58;102033.53;7391869;19;20458;-65
2023/08/23 02:23:43;;;;;;;16.48;10.80;;;;;;;19.22;77.39;102030.69;7392713;19;20480;-64
2023/08/23 02:26:11;;;;;;;18.02;11.60;;;;;;;19.06;78.10;102033.06;7391116;19;20015;-64
2023/08/23 02:28:38;;;;;;;19.85;12.25;;;;;;;19.05;79.18;102027.84;7385158;19;20364;-64
2023/08/23 02:31:06;;;;;;;21.15;12.48;;;;;;;19.03;79.09;102033.31;7386301;19;20011;-64
2023/08/23 02:33:33;;;;;;;22.50;13.43;;;;;;;19.09;79.25;102038.16;7251556;19;2763239;-64
2023/08/23 02:36:01;;;;;;;19.45;12.90;;;;;;;19.10;79.09;102034.47;7395176;19;20014;-64
2023/08/23 02:38:28;;;;;;;22.63;14.25;;;;;;;19.11;79.29;102036.16;7398650;19;20387;-64
2023/08/23 02:40:56;;;;;;;23.75;12.90;;;;;;;19.13;78.91;102031.53;7397449;19;20015;-64
2023/08/23 02:43:23;;;;;;;20.00;12.60;;;;;;;19.05;78.97;102022.47;7397168;19;20376;-64
2023/08/23 02:45:50;;;;;;;17.33;12.23;;;;;;;18.97;79.71;102024.00;7398484;19;20011;-64
2023/08/23 02:48:18;;;;;;;19.52;13.13;;;;;;;18.99;79.51;102029.22;7394329;19;20355;-64
2023/08/23 02:50:45;;;;;;;27.05;16.10;;;;;;;18.89;79.78;102021.13;7394246;19;20015;-64
2023/08/23 02:53:13;;;;;;;25.15;14.70;;;;;;;18.85;80.33;102018.84;7393735;19;20022;-64
2023/08/23 02:55:40;;;;;;;20.65;13.50;;;;;;;18.90;79.75;102022.00;7394461;19;20379;-64
2023/08/23 02:58:08;;;;;;;25.15;15.10;;;;;;;18.84;80.12;102020.69;7392781;19;20420;-64
2023/08/23 03:00:35;;;;;;;21.13;13.02;;;;;;;18.98;79.64;102019.47;7393298;19;20018;-64
2023/08/23 03:03:02;;;;;;;18.60;11.93;;;;;;;19.02;78.92;102009.31;7394691;19;20038;-64
2023/08/23 03:05:30;;;;;;;18.35;12.95;;;;;;;18.88;79.03;102023.94;7394591;19;20018;-64
2023/08/23 03:07:58;;;;;;;18.50;13.07;;;;;;;18.91;79.50;102021.84;7393912;19;20014;-64
2023/08/23 03:10:25;;;;;;;19.15;12.70;;;;;;;19.00;78.94;102020.16;7396089;19;20022;-64
2023/08/23 03:12:53;;;;;;;21.60;13.95;;;;;;;18.93;79.13;102021.72;7398271;19;20026;-64
2023/08/23 03:15:20;;;;;;;20.58;12.95;;;;;;;18.93;79.46;102027.94;7391611;19;20019;-64
2023/08/23 03:18:37;;;;;;;21.00;14.77;;;;;;;19.03;79.15;102022.56;7428662;19;20829;-64
2023/08/23 03:21:04;;;;;;;20.70;14.35;;;;;;;19.07;78.73;102029.38;7429990;19;20053;-64
2023/08/23 03:23:32;;;;;;;22.98;15.05;;;;;;;18.98;79.18;102024.84;7429241;19;20489;-64
2023/08/23 03:25:59;;;;;;;20.63;13.10;;;;;;;18.94;79.15;102023.41;7427971;19;20025;-63
2023/08/23 03:28:27;;;;;;;20.58;14.35;;;;;;;18.88;79.21;102019.41;7427741;19;20018;-62
2023/08/23 03:31:02;;;;;;;21.65;14.63;;;;;;;18.91;79.24;102024.53;7424229;19;20022;-63
2023/08/23 03:33:30;;;;;;;21.17;14.68;;;;;;;18.98;79.33;102019.47;7429270;19;20422;-63
2023/08/23 03:35:58;;;;;;;18.25;12.05;;;;;;;19.10;78.15;102023.72;7431680;19;20051;-62
2023/08/23 03:38:25;;;;;;;19.95;13.40;;;;;;;19.15;77.82;102026.84;7430297;19;19927;-62
2023/08/23 03:40:53;;;;;;;18.63;13.15;;;;;;;19.13;78.44;102020.78;7428608;19;20535;-64
2023/08/23 03:43:20;;;;;;;19.85;13.48;;;;;;;19.13;78.53;102017.25;7429192;19;20373;-64
2023/08/23 03:45:49;;;;;;;21.67;13.50;;;;;;;19.18;78.61;102015.84;7431266;19;20529;-64
2023/08/23 03:48:17;;;;;;;20.58;13.63;;;;;;;19.20;79.07;102015.72;7431203;19;20017;-64
2023/08/23 03:50:44;;;;;;;20.35;13.27;;;;;;;19.18;79.05;102015.84;7429310;19;20018;-63
2023/08/23 03:53:12;;;;;;;21.35;15.20;;;;;;;19.29;78.58;102016.72;7426723;19;20046;-64
2023/08/23 03:55:39;;;;;;;23.80;14.70;;;;;;;19.16;79.09;102011.59;7425943;19;20030;-64
2023/08/23 03:58:07;;;;;;;18.40;12.85;;;;;;;19.23;79.03;102010.03;7426466;19;20018;-64
2023/08/23 04:00:36;;;;;;;18.38;14.68;;;;;;;19.29;78.77;102006.81;7426450;19;20014;-64
2023/08/23 04:03:04;;;;;;;24.98;15.88;;;;;;;19.18;79.13;102010.47;7430367;19;20088;-63
2023/08/23 04:05:38;;;;;;;20.30;13.15;;;;;;;19.27;78.74;102019.53;7427956;19;20018;-64
2023/08/23 04:08:06;;;;;;;22.65;15.32;;;;;;;19.31;78.61;102015.59;7424453;19;20485;-64
2023/08/23 04:10:33;;;;;;;18.50;14.13;;;;;;;19.29;78.54;102030.13;7430125;19;20022;-65
2023/08/23 04:13:01;;;;;;;20.23;14.35;;;;;;;19.20;79.01;102031.81;7429024;19;20032;-63
2023/08/23 04:15:29;;;;;;;22.08;15.13;;;;;;;19.24;79.24;102025.19;7427598;19;20018;-64
2023/08/23 04:17:56;;;;;;;19.17;14.20;;;;;;;19.35;78.41;102026.91;7427474;19;20344;-64
2023/08/23 04:20:23;;;;;;;21.35;15.40;;;;;;;19.30;78.68;102034.50;7430465;19;20014;-64
2023/08/23 04:22:51;;;;;;;22.20;16.77;;;;;;;19.27;78.47;102035.66;7431124;19;20018;-64
2023/08/23 04:25:18;;;;;;;23.70;15.82;;;;;;;19.34;78.51;102036.78;7431540;19;20014;-64
2023/08/23 04:27:45;;;;;;;18.70;15.15;;;;;;;19.38;78.08;102030.13;7427958;19;20015;-64
2023/08/23 04:30:13;;;;;;;24.67;16.02;;;;;;;19.31;78.18;102037.09;7398387;19;20018;-64
2023/08/23 04:32:40;;;;;;;23.15;17.17;;;;;;;19.28;78.45;102037.34;7399420;19;20018;-64
2023/08/23 04:35:08;;;;;;;21.52;16.27;;;;;;;19.25;78.50;102034.94;7397372;19;20030;-64
2023/08/23 04:37:36;;;;;;;20.75;16.35;;;;;;;19.21;79.10;102029.00;7398677;19;20019;-64
2023/08/23 04:40:07;;;;;;;23.25;16.52;;;;;;;19.15;79.23;102032.22;7401240;19;20046;-64
2023/08/23 04:42:36;;;;;;;24.38;16.48;;;;;;;19.18;78.92;102029.25;7396964;19;20010;-64
2023/08/23 04:45:04;;;;;;;24.58;18.23;;;;;;;19.18;79.21;102028.41;7401282;19;20027;-64
2023/08/23 04:47:32;;;;;;;25.13;18.33;;;;;;;19.21;79.16;102028.16;7399867;19;20448;-64
2023/08/23 04:49:59;;;;;;;23.58;17.60;;;;;;;19.23;78.96;102021.66;7397016;19;20018;-63
2023/08/23 04:52:28;;;;;;;24.63;18.17;;;;;;;19.24;78.87;102025.19;7396380;19;20094;-63
2023/08/23 04:54:55;;;;;;;23.80;17.23;;;;;;;19.27;78.71;102024.91;7395791;19;20344;-63
2023/08/23 04:57:22;;;;;;;29.88;20.10;;;;;;;19.29;78.66;102028.28;7394431;19;20039;-63
2023/08/23 04:59:50;;;;;;;27.67;20.30;;;;;;;19.34;78.33;102030.56;7399512;19;20026;-63
2023/08/23 05:02:17;;;;;;;26.88;19.27;;;;;;;19.39;78.11;102023.78;7395995;19;20018;-63
2023/08/23 05:04:45;;;;;;;32.08;22.38;;;;;;;19.42;78.11;102022.66;7395787;19;20022;-63
2023/08/23 05:07:12;;;;;;;28.65;20.88;;;;;;;19.40;78.06;102021.97;7393423;19;20023;-63
2023/08/23 05:09:39;;;;;;;33.25;21.73;;;;;;;19.32;78.57;102027.19;7395710;19;20018;-63
2023/08/23 05:12:07;;;;;;;29.63;21.15;;;;;;;19.26;78.24;102020.50;7392841;19;20046;-63
2023/08/23 05:14:34;;;;;;;33.70;21.10;;;;;;;19.15;79.23;102024.16;7394174;19;20039;-62
2023/08/23 05:17:02;;;;;;;26.95;19.15;;;;;;;19.15;78.85;102031.38;7397597;19;20039;-63
2023/08/23 05:19:29;;;;;;;28.00;18.13;;;;;;;19.20;78.70;102032.66;7393993;19;20026;-63
2023/08/23 05:21:56;;;;;;;25.83;18.15;;;;;;;19.23;78.67;102024.34;7393187;19;20022;-63
2023/08/23 05:24:24;;;;;;;25.05;17.25;;;;;;;19.15;78.69;102032.22;7395069;19;20040;-63
2023/08/23 05:26:51;;;;;;;23.80;16.60;;;;;;;19.13;78.98;102028.00;7395512;19;20025;-63
2023/08/23 05:29:19;;;;;;;25.58;16.60;;;;;;;19.13;78.53;102033.38;7393633;19;20038;-63
2023/08/23 05:31:46;;;;;;;22.42;15.30;;;;;;;19.10;78.81;102030.94;7392496;19;20025;-63
2023/08/23 05:34:14;;;;;;;23.17;14.82;;;;;;;19.14;78.27;102029.69;7394972;19;20401;-64
2023/08/23 05:36:41;;;;;;;24.67;16.55;;;;;;;19.13;78.73;102036.88;7394980;19;20014;-64
2023/08/23 05:39:09;;;;;;;23.10;16.73;;;;;;;19.08;78.92;102041.84;7394632;19;20079;-64
2023/08/23 05:41:37;;;;;;;23.30;15.70;;;;;;;19.11;78.50;102035.31;7390491;19;20531;-64
2023/08/23 05:44:04;;;;;;;22.33;14.50;;;;;;;19.19;78.22;102043.53;7394134;19;20498;-64
2023/08/23 05:46:31;;;;;;;23.30;14.70;;;;;;;19.18;77.96;102041.84;7395029;19;20018;-64
2023/08/23 05:48:59;;;;;;;22.63;13.70;;;;;;;19.21;78.22;102044.25;7392760;19;20392;-64
2023/08/23 05:51:26;;;;;;;23.70;13.63;;;;;;;19.33;77.48;102053.91;7396471;19;20018;-64
2023/08/23 05:53:53;;;;;;;24.40;14.90;;;;;;;19.41;77.52;102045.97;7394067;19;20367;-64
2023/08/23 05:56:21;;;;;;;22.50;14.38;;;;;;;19.47;77.17;102047.28;7394486;19;20018;-65
2023/08/23 05:58:48;;;;;;;22.58;14.30;;;;;;;19.55;76.63;102060.88;7394414;19;20018;-63
2023/08/23 06:01:15;;;;;;;22.00;13.43;;;;;;;19.55;76.79;102060.88;7392389;19;20474;-62
2023/08/23 06:03:43;;;;;;;21.50;12.05;;;;;;;19.52;77.21;102055.75;7393688;19;20042;-62
2023/08/23 06:06:10;;;;;;;20.67;13.50;;;;;;;19.45;77.22;102044.72;7394482;19;20022;-62
2023/08/23 06:08:38;;;;;;;20.35;13.85;;;;;;;19.36;77.66;102042.03;7392639;19;20388;-63
2023/08/23 06:11:05;;;;;;;22.50;13.93;;;;;;;19.39;77.72;102049.81;7391935;19;20043;-62
2023/08/23 06:13:33;;;;;;;24.00;12.68;;;;;;;19.35;77.65;102049.25;7393091;19;20021;-62
2023/08/23 06:16:00;;;;;;;19.23;11.77;;;;;;;19.40;77.75;102052.34;7394201;19;20028;-62
2023/08/23 06:18:28;;;;;;;20.45;12.00;;;;;;;19.43;77.70;102052.09;7393766;19;20010;-63
2023/08/23 06:20:55;;;;;;;20.08;12.50;;;;;;;19.43;77.32;102053.94;7391188;19;20018;-64
2023/08/23 06:23:23;;;;;;;19.15;11.80;;;;;;;19.42;77.65;102053.09;7393588;19;20018;-65
2023/08/23 06:25:57;;;;;;;19.02;10.77;;;;;;;19.52;77.05;102058.44;7393310;19;20387;-65
2023/08/23 06:28:24;;;;;;;20.63;11.85;;;;;;;19.53;76.79;102060.13;7392081;19;20479;-59
2023/08/23 06:30:52;;;;;;;19.00;11.35;;;;;;;19.60;77.05;102057.75;7392163;19;20372;-60
2023/08/23 06:33:19;;;;;;;17.92;11.55;;;;;;;19.66;76.49;102060.78;7392731;19;20022;-63
2023/08/23 06:35:47;;;;;;;19.58;12.57;;;;;;;19.60;76.68;102055.06;7392889;19;20014;-60
2023/08/23 06:38:15;;;;;;;25.05;12.38;;;;;;;19.62;76.62;102061.19;7391347;19;20033;-61
2023/08/23 06:40:43;;;;;;;16.92;10.60;;;;;;;19.63;77.06;102057.50;7392302;19;20077;-61
2023/08/23 06:43:17;;;;;;;17.65;9.95;;;;;;;19.70;76.70;102058.66;7392681;19;20375;-63
2023/08/23 06:45:45;;;;;;;18.83;10.35;;;;;;;19.68;76.71;102063.31;7391477;19;20026;-62
2023/08/23 06:48:12;;;;;;;18.98;10.38;;;;;;;19.73;76.59;102058.38;7391973;19;20018;-62
2023/08/23 06:50:39;;;;;;;16.90;11.43;;;;;;;19.74;76.52;102054.69;7394329;19;20094;-62
2023/08/23 06:53:07;;;;;;;17.20;10.98;;;;;;;19.75;76.39;102056.38;7391725;19;20014;-63
2023/08/23 06:55:41;;;;;;;20.95;11.35;;;;;;;19.82;76.38;102057.53;7392312;19;20021;-61
2023/08/23 06:58:09;;;;;;;20.42;11.05;;;;;;;19.78;76.90;102053.41;7391383;19;20042;-62
2023/08/23 07:00:37;;;;;;;18.10;11.48;;;;;;;19.76;76.94;102057.22;7391863;19;20022;-63
2023/08/23 07:03:04;;;;;;;17.38;10.60;;;;;;;19.85;77.01;102059.94;7392198;19;20039;-62
2023/08/23 07:05:35;;;;;;;18.13;11.73;;;;;;;19.83;76.90;102056.53;7393750;19;20035;-63
2023/08/23 07:08:03;;;;;;;19.02;11.70;;;;;;;19.86;76.93;102055.41;7394732;19;20018;-63
2023/08/23 07:10:30;;;;;;;17.95;11.32;;;;;;;19.91;77.00;102053.13;7393320;19;20021;-62
2023/08/23 07:12:58;;;;;;;15.25;10.30;;;;;;;20.03;76.21;102054.66;7395316;19;20478;-63
2023/08/23 07:15:25;;;;;;;19.60;10.43;;;;;;;20.20;75.69;102053.09;7393321;19;20029;-63
2023/08/23 07:17:53;;;;;;;20.48;13.63;;;;;;;20.30;75.18;102056.63;7395862;19;20074;-63
2023/08/23 07:20:20;;;;;;;16.55;10.43;;;;;;;20.48;74.68;102064.78;7394365;19;20102;-62
2023/08/23 07:22:48;;;;;;;17.92;11.30;;;;;;;20.52;74.52;102058.16;7394087;19;20014;-64
2023/08/23 07:25:16;;;;;;;24.98;12.85;;;;;;;20.52;75.15;102062.69;7393648;19;20740;-64
2023/08/23 07:27:43;;;;;;;16.50;10.85;;;;;;;20.59;74.39;102059.25;7393990;19;20019;-64
2023/08/23 07:30:11;;;;;;;18.27;11.15;;;;;;;20.65;73.95;102064.06;7393238;19;20031;-64
2023/08/23 07:32:39;;;;;;;15.77;10.63;;;;;;;20.66;73.88;102070.31;7392069;19;20086;-63
2023/08/23 07:35:07;;;;;;;17.38;10.25;;;;;;;20.65;73.53;102063.22;7392552;19;20015;-63
2023/08/23 07:37:35;;;;;;;17.52;11.00;;;;;;;20.79;72.98;102069.97;7394236;19;20011;-63
2023/08/23 07:40:04;;;;;;;15.18;9.73;;;;;;;20.84;72.79;102070.38;7393122;19;21103;-64
2023/08/23 07:42:31;;;;;;;19.15;11.90;;;;;;;20.98;72.78;102064.50;7392825;19;20010;-64
2023/08/23 07:44:59;;;;;;;20.05;11.15;;;;;;;20.99;72.85;102070.75;7393547;19;20014;-64
2023/08/23 07:47:26;;;;;;;18.55;12.25;;;;;;;20.82;73.40;102072.38;7393877;19;20646;-62
2023/08/23 07:49:53;;;;;;;19.33;11.48;;;;;;;20.67;73.45;102067.44;7391336;19;20026;-66
2023/08/23 07:52:21;;;;;;;19.23;11.10;;;;;;;20.61;73.39;102068.06;7387168;19;20029;-64
2023/08/23 07:54:48;;;;;;;17.05;11.52;;;;;;;20.75;73.84;102068.56;7393312;19;20018;-64
2023/08/23 07:57:16;;;;;;;21.58;13.07;;;;;;;20.92;72.88;102059.72;7392571;19;20042;-63
2023/08/23 07:59:43;;;;;;;20.58;12.55;;;;;;;21.15;72.82;102074.47;7391848;19;20023;-65
2023/08/23 08:02:11;;;;;;;16.45;10.25;;;;;;;21.10;72.11;102076.78;7389655;19;20026;-66
2023/08/23 08:04:39;;;;;;;17.05;10.10;;;;;;;20.96;72.06;102085.34;7395275;19;20026;-65
2023/08/23 08:07:07;;;;;;;15.82;10.93;;;;;;;20.91;72.29;102080.41;7396526;19;20010;-67
2023/08/23 08:09:34;;;;;;;16.17;10.38;;;;;;;20.88;72.22;102090.63;7395929;19;20017;-68
2023/08/23 08:12:02;;;;;;;16.52;10.00;;;;;;;20.88;72.52;102083.41;7394847;19;20042;-67
2023/08/23 08:14:29;;;;;;;17.48;10.90;;;;;;;20.90;72.47;102088.63;7398122;19;20121;-67
2023/08/23 08:16:56;;;;;;;18.40;11.35;;;;;;;20.83;72.66;102095.59;7398066;19;20026;-67
2023/08/23 08:19:24;;;;;;;15.88;11.23;;;;;;;20.83;72.61;102095.59;7397656;19;20023;-68
2023/08/23 08:21:53;;;;;;;18.67;11.85;;;;;;;20.88;72.20;102099.56;7394878;19;20023;-67
2023/08/23 08:24:21;;;;;;;15.35;10.70;;;;;;;20.90;72.31;102088.63;7397490;19;20018;-67
2023/08/23 08:26:48;;;;;;;21.50;16.02;;;;;;;20.93;72.20;102096.41;7397299;19;20029;-67
2023/08/23 08:29:16;;;;;;;24.60;17.98;;;;;;;21.04;72.08;102098.94;7395732;19;20027;-67
2023/08/23 08:31:43;;;;;;;24.75;17.77;;;;;;;21.08;71.73;102094.09;7393254;19;20023;-68
2023/08/23 08:34:11;;;;;;;24.42;19.83;;;;;;;21.14;71.13;102094.34;7395409;19;20011;-67
2023/08/23 08:36:40;;;;;;;24.52;19.42;;;;;;;21.18;71.16;102092.19;7397322;19;20038;-64
2023/08/23 08:39:07;;;;;;;23.77;16.95;;;;;;;21.24;70.68;102093.44;7395043;19;20041;-66
2023/08/23 08:41:35;;;;;;;19.42;16.48;;;;;;;21.41;70.90;102101.59;7393084;19;20022;-67
2023/08/23 08:44:03;;;;;;;23.38;17.77;;;;;;;21.49;70.12;102095.47;7397144;19;20029;-66
2023/08/23 08:46:30;;;;;;;22.08;16.17;;;;;;;21.51;69.50;102109.63;7396728;19;20034;-68
2023/08/23 08:48:58;;;;;;;12.60;9.00;;;;;;;21.56;69.28;102101.06;7395668;19;20011;-67
2023/08/23 08:51:27;;;;;;;14.63;8.70;;;;;;;21.64;69.04;102095.78;7398242;19;20018;-66
2023/08/23 08:53:55;;;;;;;13.23;7.25;;;;;;;21.69;69.11;102100.72;7396818;19;20484;-67
2023/08/23 08:56:23;;;;;;;15.30;7.28;;;;;;;21.65;68.43;102095.63;7396328;19;20018;-63
2023/08/23 08:58:54;;;;;;;10.93;5.95;;;;;;;21.65;67.58;102101.03;7395008;19;20031;-63
2023/08/23 09:01:22;;;;;;;10.00;6.30;;;;;;;21.64;67.92;102095.78;7392293;19;20018;-61
2023/08/23 09:03:49;;;;;;;12.30;7.05;;;;;;;21.59;67.74;102101.63;7396319;19;20024;-62
2023/08/23 09:06:19;;;;;;;10.20;6.55;;;;;;;21.63;67.45;102094.06;7394592;19;20030;-63
2023/08/23 09:08:47;;;;;;;11.60;6.32;;;;;;;21.65;67.88;102094.78;7394951;19;20017;-62
2023/08/23 09:11:14;;;;;;;10.82;5.75;;;;;;;21.68;67.15;102094.47;7394021;19;20046;-61
2023/08/23 09:13:42;;;;;;;10.50;5.57;;;;;;;21.68;66.99;102097.19;7395636;19;20019;-62
2023/08/23 09:16:12;;;;;;;9.63;5.45;;;;;;;21.67;66.66;102081.97;7395026;19;20109;-62
2023/08/23 09:18:46;;;;;;;10.65;5.95;;;;;;;21.72;66.69;102086.94;7395549;19;20022;-62
2023/08/23 09:21:13;;;;;;;10.85;6.07;;;;;;;21.72;66.77;102087.78;7393869;19;20372;-62
2023/08/23 09:23:41;;;;;;;9.25;5.32;;;;;;;21.79;66.26;102085.31;7394871;19;20341;-62
2023/08/23 09:26:08;;;;;;;8.38;4.90;;;;;;;21.77;65.47;102080.06;7393531;19;20018;-65
2023/08/23 09:28:38;;;;;;;9.73;4.60;;;;;;;21.84;65.12;102074.91;7392749;19;20105;-65
2023/08/23 09:31:09;;;;;;;8.02;4.90;;;;;;;21.94;65.57;102075.69;7393425;19;20014;-65
2023/08/23 09:33:40;;;;;;;12.35;6.05;;;;;;;22.01;65.45;102083.97;7393467;19;20089;-65
2023/08/23 09:36:07;;;;;;;8.38;4.50;;;;;;;22.06;65.09;102081.69;7395361;19;20031;-65
2023/08/23 09:38:35;;;;;;;8.57;4.68;;;;;;;22.10;64.66;102086.59;7395497;19;20035;-64
2023/08/23 09:41:02;;;;;;;8.80;4.80;;;;;;;22.08;63.97;102083.19;7393648;19;20086;-65
2023/08/23 09:43:33;;;;;;;8.85;4.40;;;;;;;22.01;64.02;102084.81;7394723;19;20018;-65
2023/08/23 09:46:03;;;;;;;7.85;4.10;;;;;;;22.04;63.88;102078.28;7394807;19;20057;-65
2023/08/23 09:48:33;;;;;;;6.95;3.92;;;;;;;22.15;64.08;102088.88;7393013;19;20045;-64
2023/08/23 09:51:02;;;;;;;7.70;3.28;;;;;;;22.22;63.56;102089.09;7396783;19;20336;-65
2023/08/23 09:53:34;;;;;;;8.63;4.40;;;;;;;22.29;63.82;102080.22;7392577;19;20022;-65
2023/08/23 09:56:07;;;;;;;5.20;3.00;;;;;;;22.27;62.73;102084.06;7394603;19;20483;-64
2023/08/23 09:58:36;;;;;;;7.28;3.63;;;;;;;22.28;62.16;102077.66;7394232;19;20086;-65
2023/08/23 10:01:04;;;;;;;8.20;3.13;;;;;;;22.34;61.76;102075.19;7392888;19;20507;-64
2023/08/23 10:03:33;;;;;;;8.10;3.53;;;;;;;22.35;61.46;102070.63;7393910;19;20082;-64
2023/08/23 10:06:02;;;;;;;8.05;3.60;;;;;;;22.34;61.25;102074.34;7392716;19;20487;-63
2023/08/23 10:08:33;;;;;;;8.50;3.67;;;;;;;22.35;61.53;102067.91;7394196;19;20050;-64
2023/08/23 10:11:01;;;;;;;7.80;3.80;;;;;;;22.34;61.72;102071.63;7392458;19;20022;-64
2023/08/23 10:13:33;;;;;;;6.78;3.67;;;;;;;22.35;61.11;102068.75;7393725;19;20111;-65
2023/08/23 10:16:03;;;;;;;8.88;3.40;;;;;;;22.39;60.94;102063.91;7392782;19;20026;-64
2023/08/23 10:18:33;;;;;;;7.70;3.00;;;;;;;22.46;60.62;102066.81;7394266;19;20077;-64
2023/08/23 10:21:02;;;;;;;4.82;2.60;;;;;;;22.46;60.13;102064.97;7392205;19;20495;-63
2023/08/23 10:23:33;;;;;;;6.65;2.40;;;;;;;22.48;58.77;102062.13;7393492;19;20018;-67
2023/08/23 10:26:02;;;;;;;6.22;2.15;;;;;;;22.48;58.29;102064.81;7392242;19;20487;-67
2023/08/23 10:28:29;;;;;;;4.25;1.70;;;;;;;22.54;57.62;102056.06;7393046;19;20074;-68
2023/08/23 10:31:00;;;;;;;4.95;2.30;;;;;;;22.61;56.54;102057.97;7392463;19;20021;-68
2023/08/23 10:33:52;;;;;;;4.20;2.10;;;;;;;22.66;56.89;102053.94;7392666;19;20487;-63
2023/08/23 10:36:29;;;;;;;6.20;2.30;;;;;;;22.75;56.61;102055.69;7393038;19;20353;-62
2023/08/23 10:38:57;;;;;;;7.50;2.22;;;;;;;22.78;56.73;102052.63;7393279;19;20026;-63
2023/08/23 10:41:25;;;;;;;5.28;2.40;;;;;;;22.83;55.89;102055.72;7390996;19;20015;-61
2023/08/23 10:43:54;;;;;;;5.18;2.40;;;;;;;22.80;55.74;102051.47;7392972;19;20026;-62
2023/08/23 10:46:22;;;;;;;4.90;2.60;;;;;;;22.84;56.62;102047.44;7393367;19;20030;-63
2023/08/23 10:48:49;;;;;;;7.05;2.50;;;;;;;22.90;56.92;102045.97;7392678;19;20026;-63
2023/08/23 10:51:17;;;;;;;5.30;1.98;;;;;;;23.14;55.98;102047.09;7396917;19;20092;-63
2023/08/23 10:53:45;;;;;;;3.30;2.08;;;;;;;23.24;54.41;102045.13;7391301;19;20026;-62
2023/08/23 10:56:12;;;;;;;5.95;2.20;;;;;;;23.11;54.03;102038.28;7393537;19;20014;-63
2023/08/23 10:58:40;;;;;;;5.88;2.10;;;;;;;23.06;54.62;102042.50;7391878;19;20383;-64
2023/08/23 11:01:09;;;;;;;2.85;1.80;;;;;;;23.17;54.45;102046.78;7393283;19;20046;-62
2023/08/23 11:03:36;;;;;;;4.40;1.80;;;;;;;23.24;54.05;102042.41;7391134;19;20494;-63
2023/08/23 11:06:04;;;;;;;6.60;2.10;;;;;;;23.20;53.91;102039.19;7394056;19;20094;-62
2023/08/23 11:08:31;;;;;;;3.70;1.80;;;;;;;23.37;53.84;102042.75;7394295;19;20034;-64
2023/08/23 11:10:59;;;;;;;4.38;1.90;;;;;;;23.58;52.20;102029.63;7389798;19;20018;-63
2023/08/23 11:13:26;;;;;;;5.25;1.67;;;;;;;23.65;52.24;102034.34;7391090;19;20029;-63
2023/08/23 11:15:54;;;;;;;6.63;2.00;;;;;;;23.55;52.06;102039.94;7392822;19;20014;-65
2023/08/23 11:18:22;;;;;;;5.72;1.70;;;;;;;23.54;52.60;102038.22;7392594;19;20046;-66
2023/08/23 11:20:50;;;;;;;3.53;1.38;;;;;;;23.58;52.26;102026.94;7391515;19;20026;-66
2023/08/23 11:23:19;;;;;;;4.25;1.60;;;;;;;23.67;51.99;102035.06;7391831;19;20015;-65
2023/08/23 11:25:47;;;;;;;2.47;1.27;;;;;;;23.78;51.50;102023.94;7392231;19;20357;-66